Flight Track Log - Related Links

Times and Time Zones

All times are in EDT time to prevent confusion due to time zone crossing. See the DAL362 flight status page for this flight to view local times or setup timezone preferences in your user account.

Time Position Orientation Groundspeed Altitude Reporting Facility
EDT Latitude Longitude Course Direction KTS MPH feet Rate Location/Type
Sun 04:48:57 PM 23.2286 -78.8936 360° North 445 512 32,000  Level Miami Center
Sun 04:49:57 PM 23.3289 -78.8931 360° North 454 522 32,000  Level Miami Center
Sun 04:50:57 PM 23.4639 -78.9450 341° North 440 506 32,000  Level Miami Center
Sun 04:51:57 PM 23.5889 -78.9786 346° North 449 517 32,000  Level Miami Center
Sun 04:52:57 PM 23.7014 -79.0011 350° North 438 504 32,000  Level Miami Center
Sun 04:53:57 PM 23.8222 -79.0303 348° North 431 496 32,000  Level Miami Center
Sun 04:54:57 PM 23.9389 -79.0572 348° North 426 490 32,000  Level Miami Center
Sun 04:55:57 PM 24.0572 -79.1072 339° North 431 496 32,000  Level Miami Center
Sun 04:56:57 PM 24.1650 -79.1661 334° Northwest 431 496 32,000  Level Miami Center
Sun 04:57:57 PM 24.2747 -79.2206 336° Northwest 432 497 32,000  Level Miami Center
Sun 04:58:57 PM 24.3847 -79.2750 336° Northwest 432 497 32,000  Level Miami Center
Sun 04:59:58 PM 24.4944 -79.3297 336° Northwest 432 497 32,000  Level Miami Center
Sun 05:00:58 PM 24.6064 -79.3867 335° Northwest 438 504 32,000  Level Miami Center
Sun 05:01:57 PM 24.7161 -79.4439 335° Northwest 438 504 32,000  Level Miami Center
Sun 05:02:57 PM 24.8281 -79.4989 336° Northwest 438 504 32,000  Level Miami Center
Sun 05:03:58 PM 24.9397 -79.5586 347° North 438 504 32,000  Level Miami Center
Sun 05:04:58 PM 25.0536 -79.6161 335° Northwest 438 504 32,000  Level Miami Center
Sun 05:05:57 PM 25.1653 -79.6736 335° Northwest 438 504 32,000  Level Miami Center
Sun 05:06:57 PM 25.2769 -79.7314 335° Northwest 438 504 32,000  Level Miami Center
Sun 05:07:57 PM 25.3928 -79.7892 336° Northwest 438 504 32,000  Level Miami Center
Sun 05:08:58 PM 25.5067 -79.8450 336° Northwest 438 504 32,000  Level Miami Center
Sun 05:09:58 PM 25.6269 -79.8894 342° North 438 504 32,000  Level Miami Center
Sun 05:10:58 PM 25.7450 -79.9339 341° North 444 511 32,000  Level Miami Center
Sun 05:11:57 PM 25.8611 -79.9783 341° North 444 511 32,000  Level Miami Center
Sun 05:12:58 PM 25.9792 -80.0278 339° North 444 511 32,000  Level Miami Center
Sun 05:13:58 PM 26.0972 -80.0725 341° North 444 511 32,000  Level Miami Center
Sun 05:14:58 PM 26.2131 -80.1219 339° North 444 511 32,000  Level Miami Center
Sun 05:15:58 PM 26.3292 -80.1669 341° North 444 511 32,000 150 Level Miami Center
Sun 05:16:58 PM 26.4594 -80.2169 341° North 444 511 32,300 504 Climbing Miami Center
Sun 05:17:57 PM 26.5775 -80.2644 340° North 444 511 33,000 350 Climbing Miami Center
Sun 05:18:58 PM 26.6933 -80.3097 341° North 444 511 33,000  Level Miami Center
Sun 05:19:58 PM 26.8072 -80.3547 341° North 444 511 33,000  Level Miami Center
Sun 05:20:58 PM 26.9231 -80.4025 340° North 444 511 33,000  Level Miami Center
Sun 05:21:57 PM 27.0408 -80.4506 340° North 444 511 33,000  Level Miami Center
Sun 05:22:58 PM 27.1544 -80.4958 340° North 444 511 33,000  Level Miami Center
Sun 05:23:58 PM 27.2722 -80.5442 340° North 444 511 33,000  Level Miami Center
Sun 05:24:58 PM 27.3903 -80.5783 346° North 444 511 33,000  Level Miami Center
Sun 05:25:58 PM 27.5131 -80.6033 350° North 439 505 33,000  Level Miami Center
Sun 05:26:58 PM 27.6356 -80.6261 351° North 439 505 33,000  Level Miami Center
Sun 05:27:58 PM 27.7561 -80.6464 352° North 439 505 33,000  Level Miami Center
Sun 05:28:57 PM 27.8683 -80.6642 352° North 447 514 33,000  Level Miami Center
Sun 05:29:57 PM 28.0056 -80.6853 352° North 455 524 33,000  Level Miami Center
Sun 05:30:57 PM 28.1261 -80.7058 351° North 450 518 33,000  Level Miami Center
Sun 05:31:57 PM 28.2467 -80.7242 352° North 444 511 33,000  Level Miami Center
Sun 05:32:58 PM 28.3733 -80.7472 351° North 444 511 33,000  Level Miami Center
Sun 05:33:58 PM 28.4936 -80.7681 351° North 444 511 33,000  Level Miami Center
Sun 05:35:46 PM 28.6886 -80.8383 342° North 429 494 33,000  Level Jacksonville Center
Sun 05:36:46 PM 28.7939 -80.9050 331° Northwest 429 494 33,000  Level Jacksonville Center
Sun 05:37:46 PM 28.9075 -80.9500 341° North 434 499 33,000  Level Jacksonville Center
Sun 05:38:46 PM 29.0228 -80.9953 341° North 434 499 33,000  Level Jacksonville Center
Sun 05:39:46 PM 29.1383 -81.0383 342° North 434 499 33,000  Level Jacksonville Center
Sun 05:40:46 PM 29.2558 -81.0861 340° North 434 499 33,000  Level Jacksonville Center
Sun 05:41:46 PM 29.3672 -81.1339 340° North 434 499 33,000  Level Jacksonville Center
Sun 05:42:46 PM 29.4825 -81.1797 341° North 434 499 33,000  Level Jacksonville Center
Sun 05:43:46 PM 29.5981 -81.2231 342° North 434 499 33,000  Level Jacksonville Center
Sun 05:44:46 PM 29.7133 -81.2714 340° North 434 499 33,000  Level Jacksonville Center
Sun 05:45:46 PM 29.8289 -81.3147 342° North 434 499 33,000  Level Jacksonville Center
Sun 05:46:46 PM 29.9461 -81.3608 341° North 434 499 33,000  Level Jacksonville Center
Sun 05:47:46 PM 30.0636 -81.4069 341° North 439 505 33,000  Level Jacksonville Center
Sun 05:48:46 PM 30.1872 -81.4314 350° North 439 505 33,000  Level Jacksonville Center
Sun 05:49:46 PM 30.3144 -81.4294 North 444 511 33,000  Level Jacksonville Center
Sun 05:50:46 PM 30.4564 -81.4250 North 454 522 33,000  Level Jacksonville Center
Sun 05:51:46 PM 30.5839 -81.4231 North 454 522 33,000  Level Jacksonville Center
Sun 05:52:46 PM 30.7092 -81.4258 359° North 454 522 33,000  Level Jacksonville Center
Sun 05:53:46 PM 30.8303 -81.4411 354° North 449 517 33,000  Level Jacksonville Center
Sun 05:54:46 PM 30.9558 -81.4561 354° North 449 517 33,000  Level Jacksonville Center
Sun 05:55:46 PM 31.0792 -81.4736 353° North 449 517 33,000  Level Jacksonville Center
Sun 05:56:46 PM 31.1925 -81.5375 334° Northwest 430 495 33,000  Level Jacksonville Center
Sun 05:57:46 PM 31.2997 -81.6114 330° Northwest 450 518 33,000  Level Jacksonville Center
Sun 05:58:46 PM 31.4028 -81.6806 330° Northwest 433 498 33,000  Level Jacksonville Center
Sun 05:59:46 PM 31.5039 -81.7644 325° Northwest 438 504 33,000  Level Jacksonville Center
Sun 06:00:46 PM 31.5942 -81.8414 324° Northwest 444 511 33,000  Level Jacksonville Center
Sun 06:01:46 PM 31.6994 -81.9450 320° Northwest 444 511 33,000  Level Jacksonville Center
Sun 06:02:46 PM 31.7919 -82.0394 319° Northwest 451 519 33,000  Level Jacksonville Center
Sun 06:04:56 PM 31.9922 -82.2389 320° Northwest 469 540 33,000  Level Atlanta Center
Sun 06:05:56 PM 32.0856 -82.3353 319° Northwest 462 532 33,000  Level Atlanta Center
Sun 06:06:56 PM 32.1744 -82.4342 317° Northwest 451 519 33,000  Level Atlanta Center
Sun 06:07:56 PM 32.2656 -82.5453 314° West 441 507 33,000 -700 Level Atlanta Center
Sun 06:08:56 PM 32.3419 -82.6475 312° West 436 502 31,600 -1,750 Descending Atlanta Center
Sun 06:09:56 PM 32.4244 -82.7569 312° West 442 509 29,500 -2,000 Descending Atlanta Center
Sun 06:10:56 PM 32.5133 -82.8714 313° West 456 525 27,600 -1,400 Descending Atlanta Center
Sun 06:11:56 PM 32.6000 -82.9836 313° West 461 531 26,700 -1,050 Descending Atlanta Center
Sun 06:12:56 PM 32.6864 -83.0986 312° West 461 531 25,500 -1,100 Descending Atlanta Center
Sun 06:13:56 PM 32.7708 -83.2114 312° West 461 531 24,500 -1,750 Descending Atlanta Center
Sun 06:14:56 PM 32.8508 -83.3192 311° West 453 521 22,000 -2,450 Descending Atlanta Center
Sun 06:15:56 PM 32.9286 -83.4250 311° West 445 512 19,600 -2,400 Descending Atlanta Center
Sun 06:16:56 PM 33.0042 -83.5236 312° West 424 488 17,200 -2,350 Descending Atlanta Center
Sun 06:17:56 PM 33.0881 -83.6100 319° Northwest 401 461 14,900 -2,378 Descending Atlanta Center
Sun 06:18:47 PM 33.1667 -83.6667 329° Northwest 384 442 12,800 -1,568 Descending Atlanta TRACON
Sun 06:19:47 PM 33.2667 -83.7333 331° Northwest 344 396 12,000 -750 Descending Atlanta TRACON
Sun 06:20:47 PM 33.3333 -83.7833 328° Northwest 304 350 11,300 -850 Descending Atlanta TRACON
Sun 06:21:47 PM 33.4000 -83.8333 328° Northwest 276 318 10,300 -1,000 Descending Atlanta TRACON
Sun 06:22:47 PM 33.4667 -83.8667 337° Northwest 251 289 9,300 -1,050 Descending Atlanta TRACON
Sun 06:23:47 PM 33.5333 -83.8833 348° North 230 265 8,200 -650 Descending Atlanta TRACON
Sun 06:24:47 PM 33.5833 -83.9000 344° North 228 262 8,000 -105 Descending Atlanta TRACON
Sun 06:25:41 PM 33.6167 -83.9333 320° Northwest 202 232 8,000  Level Atlanta TRACON
Sun 06:25:56 PM 33.6253 -83.9539 297° West 189 217 8,000 -480 Level Atlanta Center
Sun 06:26:56 PM 33.6294 -84.0189 274° West 197 227 7,400 -900 Descending Atlanta Center
Sun 06:27:56 PM 33.6294 -84.0836 270° West 197 227 6,200 -1,029 Descending Atlanta Center
Sun 06:28:41 PM 33.6333 -84.1333 275° West 173 199 5,600 -857 Descending Atlanta TRACON
Sun 06:29:41 PM 33.6333 -84.1833 270° West 183 211 4,700 -952 Descending Atlanta TRACON
Sun 06:30:47 PM 33.6333 -84.2500 270° West 181 208 3,600 -1,000 Descending Atlanta TRACON
Sun 06:31:41 PM 33.6333 -84.3000 270° West 167 192 2,700 -842 Descending Atlanta TRACON
Sun 06:32:41 PM 33.6333 -84.3500 270° West 141 162 2,000 -700 Descending Atlanta TRACON
Sun 06:33:41 PM 33.6333 -84.4000 270° West 144 166 1,300 -700 Descending Atlanta TRACON
Sun 06:35:00 PM 33.6367 -84.4279 270° West  Level Estimated
Sun 06:42:00 PM 33.6367 -84.4279 64° Northeast  Level Estimated

Login

Don't have an account? Register now (free) for customized features, flight alerts, and more!